Amderma, Russia
Current Conditions -  °F | °C
As of 8:30 AM on Friday 28 Nov 2014 (Local Time) from UUYY Reporting Station
Snow Showers Snow Showers  
Wind Chill: 27°   Ceiling: 1500
Heat Index: 27°   Visibility: 1.6mi
Dew Point: 25°   Wind: 2mph
Humidity: 93%   Direction: NA
Pressure: 30.33"   Gusts: NA
Location:  69.76°N, 61.67°E
Report Text: UUYY 280530Z VRB01MPS 2700 -SHSN SCT005 BKN015CB OVC066 M03/M04 Q1027 TEMPO 1000 SHSN 1945//45 RMK QFE761/1015
Loading
Personal Weather Stations






























Interactive Weather Map New forecast layout! Learn more

10-Day Weather Forecast

Advertisements
Track Severe Weather on mobile